Pittsford, Michigan
Current Conditions -  °F | °C
As of 9:54 AM on Friday 19 Dec 2014 (Local Time) from KJYM Reporting Station
Overcast Overcast  
Wind Chill: 29°   Ceiling: 1000
Heat Index: 29°   Visibility: 7mi
Dew Point: 27°   Wind: 3mph
Humidity: 94%   Direction: 20°NNE
Pressure: 30.23"   Gusts: NA
Location:  41.86°N, 84.48°W
Report Text: KJYM 191454Z AUTO 02003KT 7SM OVC010 M02/M03 A3023 RMK AO2 T10191028
Loading
Personal Weather Stations






























Interactive Weather Map New forecast layout! Learn more

10-Day Weather Forecast

Advertisements
Track Severe Weather on mobile